Flight Track Log - Related Links

Times and Time Zones

All times are in EDT time to prevent confusion due to time zone crossing. See the BJS339 flight status page for this flight to view local times or setup timezone preferences in your user account.


Time Position Orientation Groundspeed Altitude Reporting Facility
EDT Latitude Longitude Course Direction KTS MPH feet Rate Location/Type
Thu 11:13:11 AM 34.8397 -82.2825 147° Southeast 221 254 5,000  Level Atlanta Center
Thu 11:14:11 AM 34.7892 -82.2431 147° Southeast 227 261 7,700 3,100 Climbing Atlanta Center
Thu 11:15:11 AM 34.8278 -82.1714 57° Northeast 169 194 11,200 3,100 Climbing Atlanta Center
Thu 11:16:11 AM 34.8914 -82.1017 42° Northeast 197 227 13,900 1,400 Climbing Atlanta Center
Thu 11:17:11 AM 34.9692 -82.0086 44° Northeast 295 339 14,000 700 Climbing Atlanta Center
Thu 11:18:11 AM 35.0297 -81.8981 56° Northeast 343 395 15,300 2,000 Climbing Atlanta Center
Thu 11:19:11 AM 35.0883 -81.7897 57° Northeast 370 426 18,000 2,550 Climbing Atlanta Center
Thu 11:20:11 AM 35.1447 -81.6817 57° Northeast 400 460 20,400 2,200 Climbing Atlanta Center
Thu 11:21:11 AM 35.2072 -81.5656 57° Northeast 406 467 22,400 1,850 Climbing Atlanta Center
Thu 11:22:11 AM 35.2714 -81.4439 57° Northeast 417 480 24,100 1,750 Climbing Atlanta Center
Thu 11:23:11 AM 35.3375 -81.3197 57° Northeast 423 487 25,900 1,700 Climbing Atlanta Center
Thu 11:24:11 AM 35.4056 -81.1900 57° Northeast 435 501 27,500 1,300 Climbing Atlanta Center
Thu 11:25:11 AM 35.4756 -81.0575 57° Northeast 447 514 28,500 1,000 Climbing Atlanta Center
Thu 11:26:11 AM 35.5494 -80.9222 56° Northeast 459 528 29,500 1,000 Climbing Atlanta Center
Thu 11:27:11 AM 35.6231 -80.7839 57° Northeast 467 537 30,500 1,050 Climbing Atlanta Center
Thu 11:28:11 AM 35.6964 -80.6456 57° Northeast 478 550 31,600 1,150 Climbing Atlanta Center
Thu 11:29:11 AM 35.7694 -80.5042 57° Northeast 478 550 32,800 1,450 Climbing Atlanta Center
Thu 11:30:11 AM 35.8428 -80.3653 57° Northeast 478 550 34,500 1,700 Climbing Atlanta Center
Thu 11:31:11 AM 35.9136 -80.2314 57° Northeast 478 550 36,200 1,464 Climbing Atlanta Center
Thu 11:33:40 AM 36.0733 -79.9300 57° Northeast 418 481 39,600 1,200 Climbing Washington Center
Thu 11:34:41 AM 36.1458 -79.8258 49° Northeast 406 467 40,400 197 Climbing Washington Center
Thu 11:35:42 AM 36.2317 -79.6967 50° Northeast 422 486 40,000 -655 Descending Washington Center
Thu 11:36:40 AM 36.3000 -79.5894 52° Northeast 434 499 39,100 -504 Descending Washington Center
Thu 11:37:41 AM 36.3792 -79.4694 51° Northeast 440 506 39,000 -50 Descending Washington Center
Thu 11:38:41 AM 36.4561 -79.3469 52° Northeast 445 512 39,000  Level Washington Center
Thu 11:39:42 AM 36.5458 -79.2114 50° Northeast 460 529 39,000  Level Washington Center
Thu 11:40:42 AM 36.6222 -79.1011 49° Northeast 466 536 39,000  Level Washington Center
Thu 11:41:40 AM 36.7119 -78.9497 53° Northeast 479 551 39,000  Level Washington Center
Thu 11:42:40 AM 36.7992 -78.8161 51° Northeast 484 557 39,000  Level Washington Center
Thu 11:43:41 AM 36.8819 -78.6819 52° Northeast 494 568 39,000  Level Washington Center
Thu 11:44:41 AM 36.9708 -78.5450 51° Northeast 494 568 39,000  Level Washington Center
Thu 11:45:42 AM 37.0597 -78.4081 51° Northeast 501 577 39,000  Level Washington Center
Thu 11:46:40 AM 37.1442 -78.2731 52° Northeast 501 577 39,000  Level Washington Center
Thu 11:47:40 AM 37.2242 -78.1481 51° Northeast 501 577 39,000  Level Washington Center
Thu 11:48:41 AM 37.3083 -78.0072 53° Northeast 501 577 39,000  Level Washington Center
Thu 11:49:41 AM 37.3925 -77.8739 52° Northeast 496 571 39,000  Level Washington Center
Thu 11:50:41 AM 37.4761 -77.7403 52° Northeast 496 571 39,000  Level Washington Center
Thu 11:51:42 AM 37.5619 -77.6039 52° Northeast 496 571 39,000  Level Washington Center
Thu 11:52:40 AM 37.6475 -77.4672 52° Northeast 496 571 39,000  Level Washington Center
Thu 11:53:41 AM 37.7289 -77.3325 53° Northeast 491 565 39,000  Level Washington Center
Thu 11:54:41 AM 37.8122 -77.1925 53° Northeast 491 565 39,000  Level Washington Center
Thu 11:55:40 AM 37.8953 -77.0522 53° Northeast 491 565 39,000  Level Washington Center
Thu 11:56:40 AM 37.9825 -76.9142 51° Northeast 497 572 39,000  Level Washington Center
Thu 11:57:41 AM 38.0653 -76.7681 54° Northeast 497 572 39,000  Level Washington Center
Thu 11:58:42 AM 38.1519 -76.6267 52° Northeast 497 572 39,000  Level Washington Center
Thu 11:59:40 AM 38.2367 -76.4853 53° Northeast 497 572 39,000  Level Washington Center
Thu 12:00:41 PM 38.3292 -76.3567 47° Northeast 497 572 39,000  Level Washington Center
Thu 12:01:42 PM 38.4403 -76.2569 35° Northeast 480 552 39,000  Level Washington Center
Thu 12:02:40 PM 38.5514 -76.1492 37° Northeast 485 558 39,000  Level Washington Center
Thu 12:03:41 PM 38.6664 -76.0622 31° Northeast 490 564 39,000  Level Washington Center
Thu 12:04:42 PM 38.7836 -75.9697 32° Northeast 490 564 39,000  Level Washington Center
Thu 12:05:40 PM 38.8983 -75.8825 31° Northeast 485 558 39,000  Level Washington Center
Thu 12:06:41 PM 39.0111 -75.7947 31° Northeast 480 552 39,000  Level Washington Center
Thu 12:07:41 PM 39.1300 -75.7067 30° Northeast 480 552 39,000  Level Washington Center
Thu 12:08:42 PM 39.2425 -75.6158 32° Northeast 480 552 39,000 -403 Level Washington Center
Thu 12:09:40 PM 39.3592 -75.5244 31° Northeast 480 552 38,200 -741 Descending Washington Center
Thu 12:11:24 PM 39.5697 -75.3628 31° Northeast 489 563 37,000 -439 Descending New York Center
Thu 12:12:24 PM 39.6758 -75.2564 38° Northeast 477 549 37,000  Level New York Center
Thu 12:13:24 PM 39.7600 -75.1294 49° Northeast 496 571 37,000  Level New York Center
Thu 12:14:25 PM 39.8544 -74.9947 48° Northeast 507 583 37,000  Level New York Center
Thu 12:15:24 PM 39.9447 -74.8567 50° Northeast 514 592 37,000  Level New York Center
Thu 12:16:25 PM 40.0458 -74.7081 48° Northeast 516 594 37,000  Level New York Center
Thu 12:17:23 PM 40.1358 -74.5692 50° Northeast 497 572 37,000 -252 Level New York Center
Thu 12:18:24 PM 40.2211 -74.4406 49° Northeast 492 566 36,500 -934 Descending New York Center
Thu 12:19:25 PM 40.3131 -74.2986 50° Northeast 504 580 35,100 -1,361 Descending New York Center
Thu 12:20:23 PM 40.4047 -74.1561 50° Northeast 511 588 33,800 -1,375 Descending New York Center
Thu 12:22:37 PM 40.6097 -73.8361 50° Northeast 514 592 30,700 -1,439 Descending Boston Center
Thu 12:23:39 PM 40.7136 -73.6725 50° Northeast 518 596 29,100 -1,366 Descending Boston Center
Thu 12:24:40 PM 40.7950 -73.5444 50° Northeast 519 597 27,900 -1,024 Descending Boston Center
Thu 12:25:42 PM 40.8842 -73.4028 50° Northeast 503 579 27,000 -732 Descending Boston Center
Thu 12:26:43 PM 40.9892 -73.2486 48° Northeast 492 566 26,400 -976 Descending Boston Center
Thu 12:27:45 PM 41.0811 -73.1119 48° Northeast 498 573 25,000 -1,268 Descending Boston Center
Thu 12:28:46 PM 41.1697 -72.9800 48° Northeast 489 563 23,800 -976 Descending Boston Center
Thu 12:29:48 PM 41.2317 -72.8300 61° Northeast 471 542 23,000 -390 Descending Boston Center
Thu 12:30:49 PM 41.2942 -72.6567 64° Northeast 469 540 23,000  Level Boston Center
Thu 12:31:51 PM 41.3514 -72.4967 64° Northeast 473 544 23,000  Level Boston Center
Thu 12:32:53 PM 41.4075 -72.3383 65° Northeast 473 544 23,000  Level Boston Center
Thu 12:33:54 PM 41.4414 -72.1842 74° East 433 498 23,000 -1,024 Level Boston Center
Thu 12:34:56 PM 41.4644 -72.0389 78° East 404 465 20,900 -2,341 Descending Boston Center
Thu 12:35:57 PM 41.4872 -71.8842 79° East 374 430 18,200 -2,683 Descending Boston Center
Thu 12:36:59 PM 41.5078 -71.7453 79° East 359 413 15,400 -2,537 Descending Boston Center
Thu 12:38:00 PM 41.5281 -71.6236 77° East 340 391 13,000 -2,146 Descending Boston Center
Thu 12:39:02 PM 41.5511 -71.5136 74° East 312 359 11,000 -968 Descending Boston Center
Thu 12:40:04 PM 41.6283 -71.4347 37° Northeast 328 377 11,000  Level Boston Center
Thu 12:41:05 PM 41.7031 -71.3683 34° Northeast 328 377 11,000 -293 Level Boston Center
Thu 12:42:07 PM 41.7833 -71.2969 34° Northeast 327 376 10,400 -1,024 Descending Boston Center
Thu 12:43:08 PM 41.8617 -71.2503 24° Northeast 312 359 8,900 -1,171 Descending Boston Center
Thu 12:44:10 PM 41.9414 -71.2108 20° North 310 357 8,000 -976 Descending Boston Center
Thu 12:45:11 PM 42.0269 -71.1689 20° North 308 354 6,900 -1,073 Descending Boston Center
Thu 12:46:13 PM 42.1028 -71.1333 19° North 295 339 5,800 -1,065 Descending Boston Center
Thu 12:47:15 PM 42.1631 -71.1042 20° North 231 266 4,700 -1,415 Descending Boston Center
Thu 12:48:16 PM 42.2150 -71.0767 21° North 193 222 2,900 -1,268 Descending Boston Center
Thu 12:49:18 PM 42.2594 -71.0561 19° North 173 199 2,100 -780 Descending Boston Center
Thu 12:50:19 PM 42.2986 -71.0386 18° North 158 182 1,300 -732 Descending Boston Center
Thu 12:51:21 PM 42.3306 -71.0228 20° North 124 143 600 -439 Descending Boston Center
Thu 12:52:22 PM 42.3561 -71.0089 22° Northeast 121 139 400 -197 Descending Boston Center
Thu 12:54:00 PM 42.3500 -71.0000 North  Level FlightAware Approximate

Login

Don't have an account? Register now (free) for customized features, flight alerts, and more!